< < Back
Terminal Aerodrome Forecast


Current Version              Previous Versions:   1  2  3  4  5  6  7  8  9  

Terminal Aerodrome Forecast

347
FTUS42 KMLB 221100
TAFDAB
TAF
KDAB 221125Z 2212/2312 00000KT P6SM BKN250
     FM221500 12004KT P6SM SCT025 BKN250
     FM221800 10007KT P6SM VCTS SCT035CB SCT100 BKN250
      TEMPO 2218/2221 3SM TSRA BKN025CB
     FM230100 15002KT P6SM SCT050 BKN150=

Latest METAR

631
SAUS80 KWBC 222200
MTRDAB
METAR KDAB 222153Z 26004KT 3SM TSRA BR SCT018CB BKN049 OVC065 23/22
A2999 RMK AO2 RAB10 TSB02E38B40E42B49 SLP154 OCNL LTGIC OHD-S
TS OHD-S MOV NE CB ALQDS MOV NE P0007 T02280222


USA.gov is the U.S. government's official web portal to all federal, state and local government web resources and services.